createdAt,value
2019-05-19T00:00:22.130Z,1001.83
2019-05-19T00:01:22.124Z,1001.82
2019-05-19T00:02:22.120Z,1001.82
2019-05-19T00:03:22.104Z,1001.85
2019-05-19T00:04:22.087Z,1001.85
2019-05-19T00:05:22.091Z,1001.88
2019-05-19T00:06:22.065Z,1001.88
2019-05-19T00:07:22.050Z,1001.89
2019-05-19T00:08:22.047Z,1001.89
2019-05-19T00:09:22.040Z,1001.93
2019-05-19T00:10:22.018Z,1001.94
2019-05-19T00:11:22.273Z,1001.93
2019-05-19T00:12:21.995Z,1001.91
2019-05-19T00:13:21.990Z,1001.91
2019-05-19T00:14:21.975Z,1001.96
2019-05-19T00:15:21.964Z,1001.94
2019-05-19T00:16:21.954Z,1001.99
2019-05-19T00:17:21.967Z,1002.03
2019-05-19T00:18:21.929Z,1001.97
2019-05-19T00:19:26.605Z,1002.01
2019-05-19T00:20:22.907Z,1001.99
2019-05-19T00:21:21.896Z,1001.99
2019-05-19T00:22:21.897Z,1001.99
2019-05-19T00:23:21.874Z,1001.98
2019-05-19T00:24:21.861Z,1002.00
2019-05-19T00:25:21.857Z,1001.99
2019-05-19T00:26:21.838Z,1001.95
2019-05-19T00:27:21.842Z,1001.98
2019-05-19T00:28:21.822Z,1001.98
2019-05-19T00:29:21.809Z,1001.99
2019-05-19T00:30:21.799Z,1001.97
2019-05-19T00:31:21.786Z,1001.97
2019-05-19T00:32:21.815Z,1001.95
2019-05-19T00:33:21.762Z,1001.92
2019-05-19T00:34:21.751Z,1001.94
2019-05-19T00:35:21.743Z,1001.88
2019-05-19T00:36:21.734Z,1001.95
2019-05-19T00:37:21.722Z,1001.93
2019-05-19T00:38:21.848Z,1001.88
2019-05-19T00:39:21.713Z,1001.89
2019-05-19T00:40:21.691Z,1001.92
2019-05-19T00:41:21.684Z,1001.91
2019-05-19T00:42:21.672Z,1001.93
2019-05-19T00:43:21.652Z,1001.92
2019-05-19T00:44:21.655Z,1001.95
2019-05-19T00:45:21.629Z,1001.90
2019-05-19T00:46:21.619Z,1002.01
2019-05-19T00:47:21.610Z,1001.98
2019-05-19T00:48:21.597Z,1002.03
2019-05-19T00:49:21.605Z,1001.96
2019-05-19T00:50:21.587Z,1001.96
2019-05-19T00:51:21.565Z,1001.92
2019-05-19T00:52:21.557Z,1001.92
2019-05-19T00:53:21.543Z,1001.94
2019-05-19T00:54:21.575Z,1001.94
2019-05-19T00:55:21.554Z,1001.95
2019-05-19T00:56:21.505Z,1001.96
2019-05-19T00:57:21.499Z,1001.96
2019-05-19T00:58:21.483Z,1001.94
2019-05-19T00:59:21.485Z,1001.94
2019-05-19T01:00:21.465Z,1001.93
2019-05-19T01:01:21.484Z,1001.94
2019-05-19T01:02:21.439Z,1001.91
2019-05-19T01:03:21.430Z,1001.87
2019-05-19T01:04:21.422Z,1001.87
2019-05-19T01:05:21.409Z,1001.87
2019-05-19T01:06:21.412Z,1001.87
2019-05-19T01:07:21.559Z,1001.85
2019-05-19T01:08:21.378Z,1001.85
2019-05-19T01:09:21.387Z,1001.86
2019-05-19T01:10:21.352Z,1001.87
2019-05-19T01:11:21.347Z,1001.86
2019-05-19T01:12:21.372Z,1001.87
2019-05-19T01:13:21.371Z,1001.88
2019-05-19T01:14:21.315Z,1001.85
2019-05-19T01:15:21.311Z,1001.83
2019-05-19T01:16:21.290Z,1001.84
2019-05-19T01:17:21.280Z,1001.82
2019-05-19T01:18:21.420Z,1001.81
2019-05-19T01:19:21.259Z,1001.82
2019-05-19T01:20:21.336Z,1001.82
2019-05-19T01:21:21.327Z,1001.87
2019-05-19T01:22:21.233Z,1001.80
2019-05-19T01:23:21.323Z,1001.86
2019-05-19T01:24:21.333Z,1001.85
2019-05-19T01:25:21.237Z,1001.87
2019-05-19T01:26:21.249Z,1001.88
2019-05-19T01:27:21.266Z,1001.85
2019-05-19T01:28:21.273Z,1001.87
2019-05-19T01:29:21.282Z,1001.85
2019-05-19T01:30:21.291Z,1001.83
2019-05-19T01:31:21.318Z,1001.85
2019-05-19T01:32:21.177Z,1001.82
2019-05-19T01:33:23.264Z,1001.82
2019-05-19T01:37:01.592Z,1001.79
2019-05-19T01:38:01.583Z,1001.78
2019-05-19T01:39:01.418Z,1001.76
2019-05-19T01:40:01.439Z,1001.77
2019-05-19T01:41:01.295Z,1001.80
2019-05-19T01:42:02.838Z,1001.83
2019-05-19T01:44:35.822Z,1001.81
2019-05-19T01:45:36.648Z,1001.81
2019-05-19T01:46:35.200Z,1001.80
2019-05-19T01:47:34.612Z,1001.78
2019-05-19T01:48:34.619Z,1001.78
2019-05-19T01:49:34.793Z,1001.76
2019-05-19T01:50:35.246Z,1001.76
2019-05-19T01:51:34.905Z,1001.72
2019-05-19T01:52:34.752Z,1001.76
2019-05-19T01:53:34.635Z,1001.76
2019-05-19T01:54:34.457Z,1001.70
2019-05-19T01:55:34.463Z,1001.70
2019-05-19T02:20:37.941Z,1001.64
2019-05-19T02:21:37.414Z,1001.62
2019-05-19T02:22:36.909Z,1001.62
2019-05-19T02:23:36.608Z,1001.61
2019-05-19T02:24:37.123Z,1001.60
2019-05-19T02:25:36.728Z,1001.60
2019-05-19T02:26:36.625Z,1001.64
2019-05-19T02:27:36.740Z,1001.64
2019-05-19T02:28:36.541Z,1001.63
2019-05-19T02:29:36.546Z,1001.62
2019-05-19T02:30:36.760Z,1001.65
2019-05-19T02:31:36.663Z,1001.66
2019-05-19T02:32:36.778Z,1001.66
2019-05-19T02:33:36.781Z,1001.64
2019-05-19T02:34:36.580Z,1001.63
2019-05-19T02:35:36.795Z,1001.64
2019-05-19T02:36:36.489Z,1001.65
2019-05-19T02:37:36.499Z,1001.62
2019-05-19T02:38:36.406Z,1001.61
2019-05-19T02:39:36.405Z,1001.63
2019-05-19T02:40:36.619Z,1001.66
2019-05-19T02:41:36.628Z,1001.64
2019-05-19T02:42:36.428Z,1001.62
2019-05-19T02:43:36.743Z,1001.62
2019-05-19T02:44:36.655Z,1001.57
2019-05-19T02:45:37.669Z,1001.59
2019-05-19T02:46:36.462Z,1001.56
2019-05-19T02:47:36.777Z,1001.56
2019-05-19T02:48:36.796Z,1001.55
2019-05-19T02:49:36.379Z,1001.56
2019-05-19T02:50:58.093Z,1001.53
2019-05-19T02:51:36.286Z,1001.56
2019-05-19T02:52:36.295Z,1001.54
2019-05-19T02:53:36.401Z,1001.51
2019-05-19T02:54:36.221Z,1001.53
2019-05-19T02:55:36.214Z,1001.52
2019-05-19T02:56:36.222Z,1001.53
2019-05-19T02:57:36.329Z,1001.56
2019-05-19T02:58:36.439Z,1001.54
2019-05-19T02:59:37.079Z,1001.54
2019-05-19T03:00:36.143Z,1001.54
2019-05-19T03:01:36.155Z,1001.52
2019-05-19T03:02:36.777Z,1001.52
2019-05-19T03:03:36.164Z,1001.47
2019-05-19T03:04:36.291Z,1001.49
2019-05-19T03:05:36.180Z,1001.50
2019-05-19T03:06:36.093Z,1001.54
2019-05-19T03:07:36.125Z,1001.54
2019-05-19T03:08:36.098Z,1001.51
2019-05-19T03:09:36.100Z,1001.56
2019-05-19T03:10:36.210Z,1001.55
2019-05-19T03:11:36.118Z,1001.51
2019-05-19T03:12:36.024Z,1001.51
2019-05-19T03:13:36.132Z,1001.51
2019-05-19T03:14:36.138Z,1001.51
2019-05-19T03:15:36.042Z,1001.52
2019-05-19T03:16:36.145Z,1001.55
2019-05-19T03:17:35.954Z,1001.58
2019-05-19T03:18:35.969Z,1001.55
2019-05-19T03:19:35.968Z,1001.58
2019-05-19T03:20:36.181Z,1001.56
2019-05-19T03:21:36.099Z,1001.61
2019-05-19T03:22:36.044Z,1001.60
2019-05-19T03:23:35.898Z,1001.62
2019-05-19T03:24:35.902Z,1001.63
2019-05-19T03:25:35.919Z,1001.62
2019-05-19T03:26:36.122Z,1001.65
2019-05-19T03:27:36.031Z,1001.61
2019-05-19T03:28:35.929Z,1001.67
2019-05-19T03:29:35.835Z,1001.66
2019-05-19T03:30:36.140Z,1001.69
2019-05-19T03:31:35.856Z,1001.68
2019-05-19T03:32:35.854Z,1001.75
2019-05-19T03:33:35.985Z,1001.73
2019-05-19T03:34:35.869Z,1001.73
2019-05-19T03:35:35.776Z,1001.75
2019-05-19T03:36:35.778Z,1001.70
2019-05-19T03:37:35.888Z,1001.72
2019-05-19T03:38:35.797Z,1001.75
2019-05-19T03:39:35.802Z,1001.73
2019-05-19T03:40:36.325Z,1001.73
2019-05-19T03:41:35.714Z,1001.70
2019-05-19T03:42:35.732Z,1001.72
2019-05-19T03:43:36.037Z,1001.74
2019-05-19T03:44:35.706Z,1001.73
2019-05-19T03:45:35.634Z,1001.79
2019-05-19T03:46:36.876Z,1001.80
2019-05-19T03:47:35.760Z,1001.80
2019-05-19T03:48:35.655Z,1001.80
2019-05-19T03:49:35.677Z,1001.80
2019-05-19T03:50:35.777Z,1001.73
2019-05-19T03:51:35.578Z,1001.73
2019-05-19T03:52:35.789Z,1001.76
2019-05-19T03:53:35.613Z,1001.74
2019-05-19T03:54:35.701Z,1001.79
2019-05-19T03:55:35.607Z,1001.76
2019-05-19T03:56:35.717Z,1001.74
2019-05-19T03:57:35.513Z,1001.75
2019-05-19T03:58:35.524Z,1001.76
2019-05-19T03:59:35.732Z,1001.76
2019-05-19T04:00:35.642Z,1001.78
2019-05-19T04:01:35.548Z,1001.78
2019-05-19T04:02:35.549Z,1001.78
2019-05-19T04:03:35.560Z,1001.77
2019-05-19T04:04:35.460Z,1001.82
2019-05-19T04:05:35.573Z,1001.76
2019-05-19T04:06:35.415Z,1001.81
2019-05-19T04:07:35.421Z,1001.79
2019-05-19T04:08:35.592Z,1001.79
2019-05-19T04:09:35.445Z,1001.78
2019-05-19T04:10:35.499Z,1001.75
2019-05-19T04:11:35.414Z,1001.82
2019-05-19T04:12:35.515Z,1001.74
2019-05-19T04:13:35.834Z,1001.74
2019-05-19T04:14:35.639Z,1001.79
2019-05-19T04:15:35.334Z,1001.77
2019-05-19T04:16:35.336Z,1001.79
2019-05-19T04:17:35.626Z,1001.82
2019-05-19T04:18:35.455Z,1001.84
2019-05-19T04:19:36.689Z,1001.84
2019-05-19T04:20:35.260Z,1001.87
2019-05-19T04:21:48.132Z,1001.86
2019-05-19T04:22:36.307Z,1001.86
2019-05-19T04:23:35.297Z,1001.86
2019-05-19T04:24:36.112Z,1001.86
2019-05-19T04:26:56.912Z,1001.86
2019-05-19T04:27:56.098Z,1001.82
2019-05-19T04:28:56.104Z,1001.85
2019-05-19T04:29:56.164Z,1001.82
2019-05-19T04:30:56.118Z,1001.83
2019-05-19T04:31:56.022Z,1001.82
2019-05-19T04:34:17.760Z,1001.88
2019-05-19T04:35:17.603Z,1001.88
2019-05-19T04:36:17.509Z,1001.84
2019-05-19T04:37:17.510Z,1001.84
2019-05-19T04:39:39.653Z,1001.87
2019-05-19T04:40:39.195Z,1001.88
2019-05-19T04:41:40.270Z,1001.87
2019-05-19T04:42:39.204Z,1001.89
2019-05-19T04:43:39.017Z,1001.93
2019-05-19T04:44:39.641Z,1001.90
2019-05-19T04:45:51.307Z,1001.85
2019-05-19T04:46:39.714Z,1001.84
2019-05-19T04:47:39.003Z,1001.84
2019-05-19T04:48:38.997Z,1001.81
2019-05-19T04:49:38.947Z,1001.87
2019-05-19T04:50:39.978Z,1001.83
2019-05-19T04:51:39.347Z,1001.81
2019-05-19T04:52:39.773Z,1001.85
2019-05-19T04:53:40.309Z,1001.77
2019-05-19T04:54:39.088Z,1001.78
2019-05-19T04:55:39.255Z,1001.79
2019-05-19T04:56:39.061Z,1001.75
2019-05-19T04:57:38.904Z,1001.72
2019-05-19T04:58:39.025Z,1001.74
2019-05-19T04:59:38.993Z,1001.76
2019-05-19T05:00:39.293Z,1001.72
2019-05-19T05:01:38.830Z,1001.70
2019-05-19T05:02:39.140Z,1001.70
2019-05-19T05:03:38.851Z,1001.69
2019-05-19T05:04:38.848Z,1001.69
2019-05-19T05:05:39.368Z,1001.68
2019-05-19T05:06:38.770Z,1001.73
2019-05-19T05:07:38.771Z,1001.79
2019-05-19T05:08:39.087Z,1001.78
2019-05-19T05:09:38.787Z,1001.77
2019-05-19T05:10:38.788Z,1001.72
2019-05-19T05:11:38.713Z,1001.72
2019-05-19T05:12:38.699Z,1001.73
2019-05-19T05:13:38.807Z,1001.75
2019-05-19T05:14:38.867Z,1001.73
2019-05-19T05:15:38.721Z,1001.76
2019-05-19T05:16:38.843Z,1001.78
2019-05-19T05:17:38.628Z,1001.79
2019-05-19T05:18:38.644Z,1001.77
2019-05-19T05:19:38.750Z,1001.80
2019-05-19T05:20:38.649Z,1001.81
2019-05-19T05:21:38.867Z,1001.84
2019-05-19T05:22:39.249Z,1001.79
2019-05-19T05:23:38.573Z,1001.79
2019-05-19T05:24:38.679Z,1001.77
2019-05-19T05:25:38.592Z,1001.77
2019-05-19T05:26:38.598Z,1001.77
2019-05-19T05:27:38.607Z,1001.77
2019-05-19T05:28:38.611Z,1001.77
2019-05-19T05:29:39.323Z,1001.77
2019-05-19T05:30:38.689Z,1001.77
2019-05-19T05:31:38.726Z,1001.79
2019-05-19T05:32:38.530Z,1001.79
2019-05-19T05:33:38.559Z,1001.75
2019-05-19T05:34:38.453Z,1001.79
2019-05-19T05:35:38.691Z,1001.81
2019-05-19T05:36:38.453Z,1001.77
2019-05-19T05:37:38.530Z,1001.81
2019-05-19T05:38:38.485Z,1001.80
2019-05-19T05:39:38.582Z,1001.79
2019-05-19T05:40:38.388Z,1001.76
2019-05-19T05:41:38.384Z,1001.79
2019-05-19T05:42:39.932Z,1001.83
2019-05-19T05:43:38.624Z,1001.80
2019-05-19T05:44:38.410Z,1001.76
2019-05-19T05:45:38.411Z,1001.83
2019-05-19T05:46:38.313Z,1001.83
2019-05-19T05:47:38.422Z,1001.82
2019-05-19T05:48:38.852Z,1001.76
2019-05-19T05:49:38.340Z,1001.79
2019-05-19T05:50:38.356Z,1001.80
2019-05-19T05:51:38.463Z,1001.83
2019-05-19T05:52:39.148Z,1001.87
2019-05-19T05:53:38.377Z,1001.84
2019-05-19T17:21:30.413Z,999.01
2019-05-19T17:22:30.393Z,998.96
2019-05-19T17:23:30.477Z,998.97
2019-05-19T17:24:30.364Z,998.93
2019-05-19T17:25:30.360Z,998.94
2019-05-19T17:26:30.340Z,998.92
2019-05-19T17:27:30.325Z,998.95
2019-05-19T17:28:30.322Z,998.95
2019-05-19T17:29:30.647Z,998.93
2019-05-19T17:30:30.328Z,998.91
2019-05-19T17:31:30.288Z,998.88
2019-05-19T17:32:30.283Z,998.91
2019-05-19T17:33:30.271Z,998.91
2019-05-19T17:34:30.261Z,998.96
2019-05-19T17:35:30.277Z,998.95
2019-05-19T17:36:30.243Z,998.87
2019-05-19T17:37:30.221Z,998.88
2019-05-19T17:38:30.203Z,998.91
2019-05-19T17:39:30.257Z,998.86
2019-05-19T17:40:30.214Z,998.94
2019-05-19T17:41:30.180Z,998.91
2019-05-19T17:42:30.164Z,998.91
2019-05-19T17:43:30.157Z,998.90
2019-05-19T17:44:30.149Z,998.91
2019-05-19T17:45:30.287Z,998.90
2019-05-19T17:46:30.138Z,998.92
2019-05-19T17:47:30.117Z,998.90
2019-05-19T17:48:30.105Z,998.91
2019-05-19T17:49:30.092Z,998.93
2019-05-19T17:50:30.092Z,998.94
2019-05-19T17:51:30.084Z,998.90
2019-05-19T17:52:30.064Z,998.94
2019-05-19T17:53:30.109Z,998.91
2019-05-19T17:54:30.058Z,998.88
2019-05-19T17:55:30.029Z,998.89
2019-05-19T17:56:30.035Z,998.91
2019-05-19T17:57:30.007Z,998.85
2019-05-19T17:58:30.030Z,998.85
2019-05-19T17:59:30.002Z,998.85
2019-05-19T18:00:29.981Z,998.85
2019-05-19T18:01:29.997Z,998.83
2019-05-19T18:02:29.945Z,998.83
2019-05-19T18:03:29.944Z,998.86
2019-05-19T18:04:29.927Z,998.79
2019-05-19T18:05:29.935Z,998.89
2019-05-19T18:06:29.952Z,998.88
2019-05-19T18:07:30.023Z,998.89
2019-05-19T18:08:29.885Z,998.89
2019-05-19T18:09:29.897Z,998.92
2019-05-19T18:10:29.870Z,998.92
2019-05-19T18:11:29.867Z,998.96
2019-05-19T18:12:29.838Z,998.89
2019-05-19T18:13:39.361Z,998.92
2019-05-19T18:14:29.806Z,998.88
2019-05-19T18:15:29.809Z,998.93
2019-05-19T18:16:29.831Z,998.86
2019-05-19T18:17:29.794Z,998.92
2019-05-19T18:18:29.782Z,998.93
2019-05-19T18:19:29.784Z,998.96
2019-05-19T18:20:29.746Z,998.98
2019-05-19T18:21:29.729Z,999.00
2019-05-19T18:22:29.789Z,998.98
2019-05-19T18:23:29.750Z,999.03
2019-05-19T18:24:29.700Z,999.02
2019-05-19T18:25:29.779Z,999.03
2019-05-19T18:26:29.687Z,999.06
2019-05-19T18:27:29.664Z,998.99
2019-05-19T18:28:29.892Z,998.97
2019-05-19T18:29:31.658Z,998.96
2019-05-19T18:30:29.625Z,998.96
2019-05-19T18:31:31.194Z,998.96
2019-05-19T18:32:29.601Z,998.98
2019-05-19T18:33:29.597Z,999.01
2019-05-19T18:34:29.602Z,998.99
2019-05-19T18:35:29.621Z,999.03
2019-05-19T18:36:29.587Z,999.05
2019-05-19T18:37:29.577Z,999.08
2019-05-19T18:38:29.542Z,999.07
2019-05-19T18:39:29.528Z,999.08
2019-05-19T18:40:29.515Z,999.13
2019-05-19T18:41:29.524Z,999.10
2019-05-19T18:42:29.497Z,999.16
2019-05-19T18:43:29.519Z,999.14
2019-05-19T18:44:29.473Z,999.15
2019-05-19T18:45:29.497Z,999.18
2019-05-19T18:46:29.456Z,999.18
2019-05-19T18:47:29.454Z,999.20
2019-05-19T18:48:29.464Z,999.19
2019-05-19T18:49:29.506Z,999.15
2019-05-19T18:50:29.418Z,999.15
2019-05-19T18:51:29.463Z,999.12
2019-05-19T18:52:29.396Z,999.13
2019-05-19T18:53:29.437Z,999.09
2019-05-19T18:54:29.367Z,999.12
2019-05-19T18:55:29.359Z,999.08
2019-05-19T18:56:29.348Z,999.13
2019-05-19T18:57:29.351Z,999.15
2019-05-19T18:58:29.329Z,999.13
2019-05-19T18:59:29.303Z,999.17
2019-05-19T19:00:29.320Z,999.15
2019-05-19T19:01:29.287Z,999.15
2019-05-19T19:02:29.292Z,999.21
2019-05-19T19:03:29.266Z,999.17
2019-05-19T19:04:29.274Z,999.21
2019-05-19T19:05:29.245Z,999.23
2019-05-19T19:06:29.235Z,999.22
2019-05-19T19:07:29.559Z,999.27
2019-05-19T19:08:29.220Z,999.27
2019-05-19T19:09:29.216Z,999.31
2019-05-19T19:10:29.186Z,999.34
2019-05-19T19:11:29.218Z,999.31
2019-05-19T19:12:29.208Z,999.36
2019-05-19T19:13:29.156Z,999.34
2019-05-19T19:14:29.144Z,999.36
2019-05-19T19:15:29.138Z,999.37
2019-05-19T19:16:29.114Z,999.33
2019-05-19T19:17:29.101Z,999.28
2019-05-19T19:18:29.112Z,999.32
2019-05-19T19:19:29.107Z,999.33
2019-05-19T19:20:29.087Z,999.32
2019-05-19T19:21:29.063Z,999.36
2019-05-19T19:22:29.063Z,999.34
2019-05-19T19:23:29.035Z,999.38
2019-05-19T19:24:29.092Z,999.40
2019-05-19T19:25:29.042Z,999.37
2019-05-19T19:26:29.005Z,999.39
2019-05-19T19:27:29.013Z,999.39
2019-05-19T19:28:28.980Z,999.39
2019-05-19T19:29:28.979Z,999.41
2019-05-19T19:30:28.964Z,999.35
2019-05-19T19:31:28.966Z,999.44
2019-05-19T19:32:28.943Z,999.46
2019-05-19T19:33:28.943Z,999.46
2019-05-19T19:34:28.920Z,999.44
2019-05-19T19:35:38.312Z,999.45
2019-05-19T19:36:30.158Z,999.47
2019-05-19T19:37:28.909Z,999.48
2019-05-19T19:38:28.871Z,999.45
2019-05-19T19:39:28.878Z,999.43
2019-05-19T19:40:28.858Z,999.46
2019-05-19T19:41:28.855Z,999.41
2019-05-19T19:42:28.841Z,999.41
2019-05-19T19:43:28.852Z,999.41
2019-05-19T19:44:28.810Z,999.36
2019-05-19T19:45:28.805Z,999.33
2019-05-19T19:46:28.806Z,999.26
2019-05-19T19:47:28.787Z,999.23
2019-05-19T19:48:28.769Z,999.26
2019-05-19T19:49:28.753Z,999.23
2019-05-19T19:50:28.783Z,999.23
2019-05-19T19:51:28.766Z,999.21
2019-05-19T19:52:28.822Z,999.19
2019-05-19T19:53:28.791Z,999.18
2019-05-19T19:54:28.717Z,999.14
2019-05-19T19:55:28.687Z,999.11
2019-05-19T19:56:28.719Z,999.11
2019-05-19T19:57:28.668Z,999.11
2019-05-19T19:58:28.678Z,999.08
2019-05-19T19:59:28.715Z,999.11
2019-05-19T20:00:28.643Z,999.10
2019-05-19T20:01:28.672Z,999.12
2019-05-19T20:02:28.615Z,999.13
2019-05-19T20:03:28.616Z,999.15
2019-05-19T20:04:28.625Z,999.09
2019-05-19T20:05:28.635Z,999.13
2019-05-19T20:06:28.617Z,999.07
2019-05-19T20:07:28.551Z,999.05
2019-05-19T20:08:28.564Z,999.06
2019-05-19T20:09:28.556Z,999.12
2019-05-19T20:10:28.553Z,999.15
2019-05-19T20:11:28.575Z,999.13
2019-05-19T20:12:28.500Z,999.11
2019-05-19T20:13:28.502Z,999.11
2019-05-19T20:14:28.480Z,999.10
2019-05-19T20:15:28.491Z,999.08
2019-05-19T20:16:28.474Z,999.10
2019-05-19T20:17:28.459Z,999.08
2019-05-19T20:18:28.439Z,999.12
2019-05-19T20:19:28.710Z,999.13
2019-05-19T20:20:28.437Z,999.17
2019-05-19T20:21:28.407Z,999.22
2019-05-19T20:22:28.388Z,999.23
2019-05-19T20:23:28.375Z,999.25
2019-05-19T20:24:28.365Z,999.26
2019-05-19T20:25:28.581Z,999.26
2019-05-19T20:26:28.377Z,999.26
2019-05-19T20:27:28.357Z,999.28
2019-05-19T20:28:28.336Z,999.26
2019-05-19T20:29:28.312Z,999.25
2019-05-19T20:30:35.558Z,999.26
2019-05-19T20:31:31.432Z,999.22
2019-05-19T20:32:28.302Z,999.24
2019-05-19T20:33:28.267Z,999.27
2019-05-19T20:34:28.256Z,999.30
2019-05-19T20:35:28.247Z,999.31
2019-05-19T20:36:28.265Z,999.33
2019-05-19T20:37:28.280Z,999.38
2019-05-19T20:38:28.229Z,999.34
2019-05-19T20:39:28.218Z,999.29
2019-05-19T20:40:28.200Z,999.38
2019-05-19T20:41:28.180Z,999.29
2019-05-19T20:42:28.180Z,999.33
2019-05-19T20:43:28.246Z,999.29
2019-05-19T20:44:28.191Z,999.26
2019-05-19T20:45:28.140Z,999.29
2019-05-19T20:46:28.149Z,999.28
2019-05-19T20:47:28.113Z,999.31
2019-05-19T20:48:28.103Z,999.31
2019-05-19T20:49:28.109Z,999.32
2019-05-19T20:50:28.076Z,999.26
2019-05-19T20:51:28.150Z,999.32
2019-05-19T20:52:28.063Z,999.28
2019-05-19T20:53:28.052Z,999.31
2019-05-19T20:54:28.058Z,999.30
2019-05-19T20:55:28.046Z,999.29
2019-05-19T20:56:28.015Z,999.33
2019-05-19T20:57:28.005Z,999.31
2019-05-19T20:58:28.018Z,999.34
2019-05-19T20:59:28.011Z,999.31
2019-05-19T21:00:28.018Z,999.33
2019-05-19T21:01:27.959Z,999.32
2019-05-19T21:02:27.972Z,999.29
2019-05-19T21:03:27.962Z,999.30
2019-05-19T21:04:27.922Z,999.26
2019-05-19T21:05:28.209Z,999.27
2019-05-19T21:06:27.906Z,999.26
2019-05-19T21:07:27.918Z,999.24
2019-05-19T21:08:27.872Z,999.20
2019-05-19T21:09:27.868Z,999.17
2019-05-19T21:10:27.861Z,999.22
2019-05-19T21:11:27.863Z,999.15
2019-05-19T21:12:27.869Z,999.13
2019-05-19T21:13:27.823Z,999.13
2019-05-19T21:14:27.812Z,999.11
2019-05-19T21:15:27.806Z,999.12
2019-05-19T21:16:27.810Z,999.11
2019-05-19T21:17:27.786Z,999.11
2019-05-19T21:18:27.768Z,999.15
2019-05-19T21:19:27.755Z,999.19
2019-05-19T21:20:27.741Z,999.19
2019-05-19T21:21:27.757Z,999.16
2019-05-19T21:22:27.730Z,999.14
2019-05-19T21:23:27.721Z,999.17
2019-05-19T21:24:27.704Z,999.17
2019-05-19T21:25:27.698Z,999.17
2019-05-19T21:26:27.729Z,999.16
2019-05-19T21:27:27.687Z,999.18
2019-05-19T21:28:27.662Z,999.18
2019-05-19T21:29:27.644Z,999.21
2019-05-19T21:30:27.632Z,999.19
2019-05-19T21:31:27.621Z,999.19
2019-05-19T21:32:27.611Z,999.21
2019-05-19T21:33:27.650Z,999.23
2019-05-19T21:34:27.632Z,999.24
2019-05-19T21:35:27.572Z,999.20
2019-05-19T21:36:27.585Z,999.21
2019-05-19T21:37:27.918Z,999.21
2019-05-19T21:38:27.545Z,999.18
2019-05-19T21:39:27.533Z,999.17
2019-05-19T21:40:27.531Z,999.17
2019-05-19T21:41:27.509Z,999.15
2019-05-19T21:42:27.535Z,999.15
2019-05-19T21:43:27.488Z,999.14
2019-05-19T21:44:27.527Z,999.17
2019-05-19T21:45:27.481Z,999.20
2019-05-19T21:46:27.504Z,999.22
2019-05-19T21:47:27.489Z,999.20
2019-05-19T21:48:27.441Z,999.23
2019-05-19T21:49:27.431Z,999.23
2019-05-19T21:50:27.616Z,999.23
2019-05-19T21:51:27.453Z,999.24
2019-05-19T21:52:27.430Z,999.28
2019-05-19T21:53:27.438Z,999.22
2019-05-19T21:54:27.423Z,999.25
2019-05-19T21:55:27.427Z,999.25
2019-05-19T21:56:27.367Z,999.25
2019-05-19T21:57:27.339Z,999.22
2019-05-19T21:58:27.392Z,999.25
2019-05-19T21:59:27.361Z,999.24
2019-05-19T22:00:27.308Z,999.25
2019-05-19T22:01:27.393Z,999.23
2019-05-19T22:02:27.329Z,999.21
2019-05-19T22:03:27.321Z,999.23
2019-05-19T22:04:29.335Z,999.24
2019-05-19T22:05:27.291Z,999.21
2019-05-19T22:06:27.286Z,999.18
2019-05-19T22:07:27.235Z,999.15
2019-05-19T22:08:27.218Z,999.14
2019-05-19T22:09:27.195Z,999.13
2019-05-19T22:10:27.228Z,999.15
2019-05-19T22:11:27.242Z,999.12
2019-05-19T22:12:27.273Z,999.13
2019-05-19T22:13:27.181Z,999.11
2019-05-19T22:14:27.299Z,999.12
2019-05-19T22:15:27.232Z,999.16
2019-05-19T22:16:27.170Z,999.15
2019-05-19T22:17:27.127Z,999.17
2019-05-19T22:18:27.793Z,999.19
2019-05-19T22:19:27.111Z,999.26
2019-05-19T22:20:27.114Z,999.23
2019-05-19T22:21:27.098Z,999.22
2019-05-19T22:22:27.088Z,999.17
2019-05-19T22:23:27.041Z,999.14
2019-05-19T22:24:27.049Z,999.17
2019-05-19T22:25:27.025Z,999.18
2019-05-19T22:26:27.012Z,999.17
2019-05-19T22:27:27.117Z,999.15
2019-05-19T22:28:26.994Z,999.15
2019-05-19T22:29:26.980Z,999.19
2019-05-19T22:30:26.986Z,999.16
2019-05-19T22:31:36.523Z,999.16
2019-05-19T22:32:27.959Z,999.17
2019-05-19T22:33:26.964Z,999.14
2019-05-19T22:34:26.975Z,999.12
2019-05-19T22:35:26.923Z,999.14
2019-05-19T22:36:26.895Z,999.15
2019-05-19T22:37:26.901Z,999.08
2019-05-19T22:38:26.885Z,999.14
2019-05-19T22:39:26.900Z,999.12
2019-05-19T22:40:26.862Z,999.08
2019-05-19T22:41:26.855Z,999.10
2019-05-19T22:42:26.831Z,999.10
2019-05-19T22:43:26.873Z,999.10
2019-05-19T22:44:26.865Z,999.11
2019-05-19T22:45:26.802Z,999.05
2019-05-19T22:46:26.811Z,999.05
2019-05-19T22:47:26.783Z,999.03
2019-05-19T22:48:26.972Z,999.04
2019-05-19T22:49:26.863Z,998.98
2019-05-19T22:50:26.746Z,999.02
2019-05-19T22:51:26.752Z,999.04
2019-05-19T22:52:26.732Z,999.03
2019-05-19T22:53:26.730Z,999.01
2019-05-19T22:54:26.708Z,999.00
2019-05-19T22:55:26.685Z,998.97
2019-05-19T22:56:26.674Z,998.98
2019-05-19T22:57:26.709Z,998.95
2019-05-19T22:58:26.652Z,998.93
2019-05-19T22:59:26.652Z,998.98
2019-05-19T23:00:26.639Z,998.96
2019-05-19T23:01:26.621Z,998.99
2019-05-19T23:02:26.630Z,998.98
2019-05-19T23:03:26.619Z,998.93
2019-05-19T23:04:26.611Z,998.95
2019-05-19T23:05:26.582Z,998.96
2019-05-19T23:06:26.561Z,998.97
2019-05-19T23:07:26.553Z,999.02
2019-05-19T23:08:26.545Z,999.05
2019-05-19T23:09:26.812Z,999.09
2019-05-19T23:10:26.549Z,999.11
2019-05-19T23:11:26.519Z,999.20
2019-05-19T23:12:26.496Z,999.18
2019-05-19T23:13:26.501Z,999.23
2019-05-19T23:14:26.473Z,999.23
2019-05-19T23:15:26.465Z,999.12
2019-05-19T23:16:26.507Z,999.09
2019-05-19T23:17:26.450Z,999.15
2019-05-19T23:18:26.440Z,999.13
2019-05-19T23:19:26.444Z,999.11
2019-05-19T23:20:26.407Z,999.10
2019-05-19T23:21:26.391Z,999.11
2019-05-19T23:22:26.381Z,999.07
2019-05-19T23:23:26.367Z,999.07
2019-05-19T23:24:26.393Z,999.08
2019-05-19T23:25:26.365Z,999.04
2019-05-19T23:26:26.339Z,999.04
2019-05-19T23:27:26.324Z,999.01
2019-05-19T23:28:26.339Z,999.01
2019-05-19T23:29:26.308Z,998.99
2019-05-19T23:30:26.307Z,998.97
2019-05-19T23:31:26.282Z,998.92
2019-05-19T23:32:26.262Z,998.98
2019-05-19T23:33:26.261Z,998.95
2019-05-19T23:34:26.254Z,998.89
2019-05-19T23:35:26.518Z,998.90
2019-05-19T23:36:26.221Z,998.90
2019-05-19T23:37:26.212Z,998.87
2019-05-19T23:38:26.205Z,998.89
2019-05-19T23:39:26.193Z,998.90
2019-05-19T23:40:26.185Z,998.89
2019-05-19T23:41:26.217Z,998.89
2019-05-19T23:42:26.159Z,998.90
2019-05-19T23:43:26.140Z,998.89
2019-05-19T23:44:26.153Z,998.88
2019-05-19T23:45:26.154Z,998.86
2019-05-19T23:46:26.145Z,998.89
2019-05-19T23:47:26.100Z,998.87
2019-05-19T23:48:26.085Z,998.86
2019-05-19T23:49:26.078Z,998.89
2019-05-19T23:50:26.085Z,998.88
2019-05-19T23:51:26.075Z,998.87
2019-05-19T23:52:26.105Z,998.89
2019-05-19T23:53:26.043Z,998.92
2019-05-19T23:54:26.015Z,998.95
2019-05-19T23:55:26.007Z,998.96
2019-05-19T23:56:26.022Z,998.89
2019-05-19T23:57:25.987Z,998.86
2019-05-19T23:58:26.021Z,998.83
2019-05-19T23:59:25.965Z,998.83
